createdAt,value
2019-01-05T00:00:52.420Z,101639.95
2019-01-05T00:01:55.442Z,101647.65
2019-01-05T00:03:01.024Z,101646.94
2019-01-05T00:04:20.659Z,101648.28
2019-01-05T00:05:29.230Z,101645.72
2019-01-05T00:06:32.244Z,101643.16
2019-01-05T00:07:53.251Z,101638.27
2019-01-05T00:09:02.227Z,101635.23
2019-01-05T00:10:11.341Z,101640.72
2019-01-05T00:11:26.580Z,101648.78
2019-01-05T00:12:47.848Z,101648.42
2019-01-05T00:13:59.971Z,101649.41
2019-01-05T00:15:19.568Z,101643.20
2019-01-05T00:16:28.294Z,101648.70
2019-01-05T00:17:48.008Z,101646.17
2019-01-05T00:18:51.135Z,101653.36
2019-01-05T00:20:03.855Z,101648.62
2019-01-05T00:21:19.628Z,101655.33
2019-01-05T00:22:21.211Z,101654.98
2019-01-05T00:23:24.536Z,101662.67
2019-01-05T00:24:33.312Z,101665.88
2019-01-05T00:25:53.076Z,101669.38
2019-01-05T00:27:13.452Z,101665.52
2019-01-05T00:28:20.552Z,101674.40
2019-01-05T00:29:23.560Z,101667.84
2019-01-05T00:30:33.463Z,101668.95
2019-01-05T00:31:48.433Z,101667.26
2019-01-05T00:32:57.822Z,101675.31
2019-01-05T00:34:07.258Z,101679.48
2019-01-05T00:35:30.641Z,101687.66
2019-01-05T00:36:43.242Z,101681.94
2019-01-05T00:37:52.836Z,101689.62
2019-01-05T00:39:13.041Z,101691.60
2019-01-05T00:40:17.129Z,101684.30
2019-01-05T00:41:27.704Z,101685.29
2019-01-05T00:42:31.417Z,101680.08
2019-01-05T00:43:43.812Z,101682.76
2019-01-05T00:45:02.993Z,101685.20
2019-01-05T00:46:23.174Z,101681.69
2019-01-05T00:47:36.992Z,101685.72
2019-01-05T00:48:42.008Z,101692.06
2019-01-05T00:49:50.408Z,101685.00
2019-01-05T00:51:10.199Z,101684.65
2019-01-05T00:52:16.830Z,101688.67
2019-01-05T00:53:20.345Z,101683.30
2019-01-05T00:54:23.358Z,101685.98
2019-01-05T00:55:29.346Z,101685.48
2019-01-05T00:56:32.581Z,101685.98
2019-01-05T00:57:39.861Z,101682.31
2019-01-05T00:58:54.536Z,101689.15
2019-01-05T00:59:57.555Z,101684.65
2019-01-05T01:01:03.775Z,101689.03
2019-01-05T01:02:07.000Z,101690.84
2019-01-05T01:03:18.588Z,101691.36
2019-01-05T01:04:21.700Z,101695.73
2019-01-05T01:05:24.715Z,101695.38
2019-01-05T01:06:33.728Z,101703.07
2019-01-05T01:07:37.070Z,101697.20
2019-01-05T01:08:40.076Z,101699.41
2019-01-05T01:09:45.619Z,101695.02
2019-01-05T01:10:48.727Z,101710.13
2019-01-05T01:11:51.839Z,101707.45
2019-01-05T01:13:04.070Z,101704.41
2019-01-05T01:14:23.974Z,101708.44
2019-01-05T01:15:27.692Z,101710.13
2019-01-05T01:16:30.713Z,101715.50
2019-01-05T01:17:33.833Z,101714.16
2019-01-05T01:18:36.853Z,101718.66
2019-01-05T01:19:51.783Z,101705.40
2019-01-05T01:21:11.775Z,101713.80
2019-01-05T01:22:15.181Z,101702.72
2019-01-05T01:23:21.507Z,101707.57
2019-01-05T01:24:27.492Z,101710.41
2019-01-05T01:25:30.920Z,101715.41
2019-01-05T01:26:50.856Z,101712.73
2019-01-05T01:28:10.692Z,101726.50
2019-01-05T01:29:26.449Z,101721.77
2019-01-05T01:30:41.585Z,101724.56
2019-01-05T01:32:01.584Z,101727.73
2019-01-05T01:33:08.174Z,101729.22
2019-01-05T01:34:11.383Z,101728.86
2019-01-05T01:35:14.531Z,101733.00
2019-01-05T01:36:17.748Z,101742.55
2019-01-05T01:37:34.804Z,101743.02
2019-01-05T01:38:53.530Z,101742.19
2019-01-05T01:40:02.716Z,101744.16
2019-01-05T01:41:29.110Z,101738.43
2019-01-05T01:42:38.169Z,101740.60
2019-01-05T01:43:58.213Z,101741.11
2019-01-05T01:45:16.938Z,101740.75
2019-01-05T01:46:35.070Z,101741.23
2019-01-05T01:47:38.685Z,101746.59
2019-01-05T01:48:42.404Z,101744.18
2019-01-05T01:50:01.716Z,101736.13
2019-01-05T01:51:17.007Z,101749.55
2019-01-05T01:52:31.638Z,101744.18
2019-01-05T01:53:43.821Z,101748.20
2019-01-05T01:54:52.343Z,101754.19
2019-01-05T01:56:00.199Z,101751.51
2019-01-05T01:57:22.724Z,101749.70
2019-01-05T01:58:46.286Z,101750.17
2019-01-05T01:59:52.612Z,101755.89
2019-01-05T02:00:55.619Z,101752.85
2019-01-05T02:02:01.540Z,101754.70
2019-01-05T02:03:19.937Z,101752.85
2019-01-05T02:04:26.241Z,101757.86
2019-01-05T02:05:46.127Z,101756.52
2019-01-05T02:06:56.532Z,101756.52
2019-01-05T02:08:18.705Z,101760.90
2019-01-05T02:09:38.912Z,101759.08
2019-01-05T02:10:54.312Z,101758.93
2019-01-05T02:12:06.663Z,101758.57
2019-01-05T02:13:17.570Z,101765.16
2019-01-05T02:14:39.344Z,101766.00
2019-01-05T02:15:44.988Z,101763.31
2019-01-05T02:17:15.445Z,101765.52
2019-01-05T02:18:24.723Z,101766.35
2019-01-05T02:19:43.512Z,101767.22
2019-01-05T02:21:14.058Z,101767.70
2019-01-05T02:22:46.720Z,101763.31
2019-01-05T02:24:08.404Z,101768.32
2019-01-05T02:25:15.039Z,101766.98
2019-01-05T02:26:43.084Z,101772.61
2019-01-05T02:27:58.534Z,101774.93
2019-01-05T02:29:28.841Z,101766.17
2019-01-05T02:30:44.263Z,101775.20
2019-01-05T02:32:02.858Z,101781.66
2019-01-05T02:33:36.607Z,101781.30
2019-01-05T02:34:58.368Z,101782.28
2019-01-05T02:36:20.185Z,101784.24
2019-01-05T02:37:57.062Z,101778.52
2019-01-05T02:39:29.864Z,101782.19
2019-01-05T02:40:48.935Z,101793.06
2019-01-05T02:42:22.746Z,101791.36
2019-01-05T02:44:04.312Z,101796.36
2019-01-05T02:45:31.744Z,101794.30
2019-01-05T02:47:04.803Z,101785.02
2019-01-05T02:48:49.654Z,101791.52
2019-01-05T02:50:04.900Z,101794.04
2019-01-05T02:51:29.497Z,101794.66
2019-01-05T02:53:00.041Z,101800.02
2019-01-05T02:54:12.705Z,101785.54
2019-01-05T02:55:45.003Z,101789.20
2019-01-05T02:57:11.243Z,101789.56
2019-01-05T02:58:40.518Z,101788.22
2019-01-05T03:00:11.308Z,101790.90
2019-01-05T03:01:39.104Z,101790.54
2019-01-05T03:03:16.178Z,101790.54
2019-01-05T03:04:41.290Z,101792.60
2019-01-05T03:05:53.816Z,101787.23
2019-01-05T03:07:14.954Z,101793.58
2019-01-05T03:09:07.802Z,101789.56
2019-01-05T03:10:26.482Z,101792.75
2019-01-05T03:11:54.195Z,101798.11
2019-01-05T03:13:18.592Z,101795.91
2019-01-05T03:14:55.316Z,101761.03
2019-01-05T03:16:34.095Z,101798.22
2019-01-05T03:17:43.424Z,101807.61
2019-01-05T03:19:05.317Z,101812.61
2019-01-05T03:20:57.835Z,101808.23
2019-01-05T03:22:43.650Z,101815.29
2019-01-05T03:24:13.345Z,101814.92
2019-01-05T03:25:39.540Z,101816.27
2019-01-05T03:26:49.037Z,101816.27
2019-01-05T03:28:32.393Z,101813.59
2019-01-05T03:30:11.184Z,101810.55
2019-01-05T03:31:37.333Z,101810.91
2019-01-05T03:33:05.619Z,101817.61
2019-01-05T03:34:32.274Z,101815.80
2019-01-05T03:36:05.055Z,101816.63
2019-01-05T03:37:45.368Z,101814.56
2019-01-05T03:39:24.040Z,101809.56
2019-01-05T03:40:42.892Z,101819.81
2019-01-05T03:42:10.612Z,101818.95
2019-01-05T03:43:35.220Z,101826.98
2019-01-05T03:44:56.417Z,101835.54
2019-01-05T03:46:21.709Z,101836.38
2019-01-05T03:47:37.408Z,101827.97
2019-01-05T03:49:34.474Z,101828.33
2019-01-05T03:51:30.043Z,101832.86
2019-01-05T03:52:45.961Z,101830.65
2019-01-05T03:54:20.204Z,101832.50
2019-01-05T03:55:43.555Z,101837.14
2019-01-05T03:57:11.553Z,101834.56
2019-01-05T03:58:23.441Z,101829.20
2019-01-05T04:00:06.292Z,101831.53
2019-01-05T04:01:46.807Z,101833.73
2019-01-05T04:03:27.540Z,101831.53
2019-01-05T04:05:15.920Z,101829.35
2019-01-05T04:06:28.517Z,101828.48
2019-01-05T04:08:08.583Z,101833.02
2019-01-05T04:09:53.843Z,101838.01
2019-01-05T04:11:12.220Z,101839.83
2019-01-05T04:12:49.490Z,101846.89
2019-01-05T04:14:36.240Z,101837.04
2019-01-05T04:15:43.220Z,101844.83
2019-01-05T04:17:17.107Z,101847.50
2019-01-05T04:18:43.581Z,101848.84
2019-01-05T04:20:17.827Z,101855.91
2019-01-05T04:21:54.601Z,101854.92
2019-01-05T04:23:24.131Z,101853.59
2019-01-05T04:24:53.669Z,101850.80
2019-01-05T04:26:43.490Z,101858.33
2019-01-05T04:28:27.978Z,101856.01
2019-01-05T04:29:58.220Z,101852.50
2019-01-05T04:31:47.972Z,101858.33
2019-01-05T04:33:14.607Z,101856.63
2019-01-05T04:34:53.492Z,101860.17
2019-01-05T04:36:27.674Z,101852.61
2019-01-05T04:37:48.817Z,101856.63
2019-01-05T04:39:29.355Z,101858.47
2019-01-05T04:40:50.812Z,101855.80
2019-01-05T04:42:42.011Z,101856.27
2019-01-05T04:44:34.925Z,101864.30
2019-01-05T04:46:22.937Z,101863.84
2019-01-05T04:47:35.295Z,101875.03
2019-01-05T04:49:07.503Z,101872.49
2019-01-05T04:50:42.357Z,101868.95
2019-01-05T04:52:11.841Z,101875.28
2019-01-05T04:53:21.396Z,101878.33
2019-01-05T04:54:53.778Z,101877.97
2019-01-05T04:56:37.569Z,101878.94
2019-01-05T04:58:09.940Z,101877.09
2019-01-05T04:59:31.094Z,101878.44
2019-01-05T05:01:00.745Z,101886.98
2019-01-05T05:02:55.531Z,101889.16
2019-01-05T05:04:52.050Z,101894.87
2019-01-05T05:06:13.692Z,101896.73
2019-01-05T05:07:52.360Z,101898.17
2019-01-05T05:09:20.344Z,101901.00
2019-01-05T05:11:01.701Z,101893.94
2019-01-05T05:12:32.545Z,101895.27
2019-01-05T05:14:14.039Z,101904.66
2019-01-05T05:15:45.318Z,101898.43
2019-01-05T05:17:26.850Z,101901.98
2019-01-05T05:18:53.527Z,101901.61
2019-01-05T05:20:17.033Z,101904.30
2019-01-05T05:21:57.257Z,101900.75
2019-01-05T05:23:26.459Z,101910.48
2019-01-05T05:24:42.159Z,101915.02
2019-01-05T05:26:11.610Z,101914.04
2019-01-05T05:27:51.583Z,101921.10
2019-01-05T05:29:28.953Z,101913.06
2019-01-05T05:30:47.844Z,101917.44
2019-01-05T05:32:17.391Z,101920.48
2019-01-05T05:33:36.340Z,101916.58
2019-01-05T05:35:16.356Z,101917.80
2019-01-05T05:36:44.404Z,101924.50
2019-01-05T05:38:20.433Z,101924.87
2019-01-05T05:39:49.470Z,101932.55
2019-01-05T05:41:11.168Z,101938.74
2019-01-05T05:42:48.691Z,101938.88
2019-01-05T05:44:21.491Z,101942.54
2019-01-05T05:45:37.028Z,101933.88
2019-01-05T05:47:08.117Z,101932.19
2019-01-05T05:48:58.007Z,101940.33
2019-01-05T05:50:27.172Z,101946.56
2019-01-05T05:51:48.244Z,101943.88
2019-01-05T05:53:03.792Z,101955.33
2019-01-05T05:54:21.972Z,101954.97
2019-01-05T05:55:28.611Z,101952.28
2019-01-05T05:57:08.152Z,101945.22
2019-01-05T05:58:39.251Z,101941.92
2019-01-05T05:59:57.769Z,101940.59
2019-01-05T06:01:30.160Z,101943.27
2019-01-05T06:02:45.532Z,101938.63
2019-01-05T06:04:17.197Z,101935.84
2019-01-05T06:05:47.667Z,101942.55
2019-01-05T06:07:16.565Z,101950.58
2019-01-05T06:09:13.261Z,101940.09
2019-01-05T06:10:39.452Z,101947.15
2019-01-05T06:11:58.333Z,101942.52
2019-01-05T06:13:44.641Z,101935.34
2019-01-05T06:15:28.084Z,101942.52
2019-01-05T06:16:40.364Z,101949.21
2019-01-05T06:18:20.800Z,101953.38
2019-01-05T06:19:47.359Z,101952.14
2019-01-05T06:20:59.554Z,101953.98
2019-01-05T06:22:34.501Z,101952.29
2019-01-05T06:24:33.600Z,101955.44
2019-01-05T06:26:16.525Z,101964.82
2019-01-05T06:28:11.407Z,101960.44
2019-01-05T06:29:32.606Z,101957.50
2019-01-05T06:31:00.733Z,101955.94
2019-01-05T06:32:59.275Z,101962.28
2019-01-05T06:34:32.229Z,101962.28
2019-01-05T06:35:47.635Z,101965.94
2019-01-05T06:37:16.880Z,101963.72
2019-01-05T06:38:49.581Z,101966.05
2019-01-05T06:40:23.229Z,101955.47
2019-01-05T06:41:55.927Z,101957.02
2019-01-05T06:43:45.535Z,101944.60
2019-01-05T06:45:35.057Z,101956.55
2019-01-05T06:47:21.612Z,101958.73
2019-01-05T06:49:13.731Z,101970.80
2019-01-05T06:50:46.471Z,101974.81
2019-01-05T06:52:28.320Z,101974.08
2019-01-05T06:53:58.049Z,101974.08
2019-01-05T06:55:19.722Z,101980.92
2019-01-05T06:56:44.681Z,101978.25
2019-01-05T06:58:00.431Z,101978.25
2019-01-05T06:59:23.892Z,101983.97
2019-01-05T07:00:50.517Z,101983.97
2019-01-05T07:02:21.336Z,101987.01
2019-01-05T07:04:18.876Z,101981.66
2019-01-05T07:06:00.873Z,101983.72
2019-01-05T07:07:58.378Z,101999.30
2019-01-05T07:09:43.104Z,102001.00
2019-01-05T07:11:15.586Z,101998.68
2019-01-05T07:12:46.824Z,101997.60
2019-01-05T07:14:06.072Z,101991.27
2019-01-05T07:15:18.392Z,101994.92
2019-01-05T07:17:06.486Z,101993.20
2019-01-05T07:18:42.024Z,101994.17
2019-01-05T07:20:31.762Z,101995.30
2019-01-05T07:22:13.813Z,101990.63
2019-01-05T07:23:38.614Z,101990.73
2019-01-05T07:24:53.989Z,101992.80
2019-01-05T07:26:51.207Z,101997.14
2019-01-05T07:28:26.560Z,101994.81
2019-01-05T07:29:55.758Z,101999.77
2019-01-05T07:31:25.285Z,102001.83
2019-01-05T07:33:10.304Z,101997.17
2019-01-05T07:34:49.037Z,102001.88
2019-01-05T07:36:44.762Z,101996.70
2019-01-05T07:38:10.760Z,102000.99
2019-01-05T07:39:35.913Z,102003.87
2019-01-05T07:41:20.843Z,102006.03
2019-01-05T07:42:45.317Z,102012.72
2019-01-05T07:44:01.108Z,102008.64
2019-01-05T07:45:30.468Z,102009.45
2019-01-05T07:47:10.744Z,102011.24
2019-01-05T07:48:57.241Z,102011.37
2019-01-05T07:50:41.842Z,102010.83
2019-01-05T07:52:25.074Z,102008.23
2019-01-05T07:53:56.170Z,102009.16
2019-01-05T07:55:30.011Z,102014.27
2019-01-05T07:56:54.704Z,102010.83
2019-01-05T07:58:33.099Z,102011.07
2019-01-05T08:00:12.721Z,102009.81
2019-01-05T08:01:56.041Z,102013.22
2019-01-05T08:03:37.856Z,102015.12
2019-01-05T08:05:01.412Z,102018.53
2019-01-05T08:06:22.976Z,102009.83
2019-01-05T08:08:13.646Z,102008.84
2019-01-05T08:09:41.788Z,102002.00
2019-01-05T08:11:02.731Z,102003.23
2019-01-05T08:12:44.395Z,102017.78
2019-01-05T08:14:18.370Z,102015.09
2019-01-05T08:15:41.648Z,102015.92
2019-01-05T08:17:28.208Z,102007.73
2019-01-05T08:19:02.355Z,102005.05
2019-01-05T08:20:14.672Z,102009.44
2019-01-05T08:21:50.397Z,102006.75
2019-01-05T08:23:30.487Z,102015.17
2019-01-05T08:25:10.652Z,102011.77
2019-01-05T08:27:06.896Z,102011.77
2019-01-05T08:28:45.596Z,102009.20
2019-01-05T08:30:00.641Z,102003.47
2019-01-05T08:31:42.205Z,102009.35
2019-01-05T08:33:11.344Z,102003.59
2019-01-05T08:34:33.044Z,102005.44
2019-01-05T08:36:20.736Z,102008.61
2019-01-05T08:38:02.557Z,102007.26
2019-01-05T08:39:55.086Z,102009.95
2019-01-05T08:41:38.536Z,102003.34
2019-01-05T08:43:20.341Z,102001.14
2019-01-05T08:45:07.209Z,102003.83
2019-01-05T08:46:50.296Z,101999.80
2019-01-05T08:48:12.168Z,101991.73
2019-01-05T08:50:09.436Z,101993.58
2019-01-05T08:51:46.797Z,101993.58
2019-01-05T08:53:39.774Z,101996.27
2019-01-05T08:55:07.572Z,101995.28
2019-01-05T08:56:45.469Z,102001.29
2019-01-05T08:58:37.928Z,102000.30
2019-01-05T09:00:19.548Z,102002.48
2019-01-05T09:01:35.425Z,102005.53
2019-01-05T09:02:54.380Z,102005.92
2019-01-05T09:04:20.932Z,102008.12
2019-01-05T09:05:47.072Z,102007.14
2019-01-05T09:06:53.685Z,102002.98
2019-01-05T09:08:35.348Z,101996.27
2019-01-05T09:10:12.116Z,102005.05
2019-01-05T09:11:43.380Z,102002.72
2019-01-05T09:13:29.444Z,101995.99
2019-01-05T09:15:00.790Z,101997.69
2019-01-05T09:16:47.410Z,102005.41
2019-01-05T09:18:26.355Z,102002.72
2019-01-05T09:20:09.765Z,102003.34
2019-01-05T09:21:36.326Z,102006.03
2019-01-05T09:23:08.386Z,102006.66
2019-01-05T09:24:45.141Z,102013.39
2019-01-05T09:26:13.165Z,102017.42
2019-01-05T09:27:52.721Z,102026.83
2019-01-05T09:29:18.630Z,102022.28
2019-01-05T09:30:52.632Z,102020.58
2019-01-05T09:32:19.117Z,102018.13
2019-01-05T09:33:51.824Z,102017.27
2019-01-05T09:35:21.637Z,102022.17
2019-01-05T09:36:53.025Z,102020.46
2019-01-05T09:38:40.844Z,102016.55
2019-01-05T09:40:08.453Z,102013.00
2019-01-05T09:41:45.017Z,102011.30
2019-01-05T09:43:21.569Z,102002.84
2019-01-05T09:45:15.137Z,102009.56
2019-01-05T09:46:33.061Z,102000.15
2019-01-05T09:48:03.996Z,102007.26
2019-01-05T09:49:51.497Z,102005.80
2019-01-05T09:51:37.964Z,102002.12
2019-01-05T09:53:27.355Z,102006.51
2019-01-05T09:54:55.680Z,101995.40
2019-01-05T09:56:20.054Z,101991.88
2019-01-05T09:57:55.589Z,101990.89
2019-01-05T09:59:18.961Z,101989.55
2019-01-05T10:01:04.496Z,101979.27
2019-01-05T10:02:30.816Z,101987.21
2019-01-05T10:04:07.668Z,101984.52
2019-01-05T10:05:41.807Z,101985.36
2019-01-05T10:07:29.414Z,101986.07
2019-01-05T10:09:15.368Z,101977.17
2019-01-05T10:10:43.042Z,101980.57
2019-01-05T10:12:09.005Z,101981.41
2019-01-05T10:13:37.994Z,101983.97
2019-01-05T10:15:22.768Z,101982.00
2019-01-05T10:17:21.717Z,101983.82
2019-01-05T10:18:43.754Z,101987.22
2019-01-05T10:20:31.130Z,101986.23
2019-01-05T10:21:55.390Z,101990.63
2019-01-05T10:23:36.969Z,101987.45
2019-01-05T10:25:23.575Z,101983.55
2019-01-05T10:26:42.280Z,101978.16
2019-01-05T10:28:12.476Z,101991.48
2019-01-05T10:29:49.520Z,101990.98
2019-01-05T10:31:02.189Z,101995.52
2019-01-05T10:32:14.795Z,101986.95
2019-01-05T10:33:29.906Z,101995.52
2019-01-05T10:35:27.348Z,102000.55
2019-01-05T10:36:52.056Z,102000.91
2019-01-05T10:38:25.857Z,101998.21
2019-01-05T10:40:03.185Z,101992.13
2019-01-05T10:41:32.945Z,101986.74
2019-01-05T10:42:51.380Z,101989.55
2019-01-05T10:44:34.840Z,101990.06
2019-01-05T10:46:08.981Z,101997.77
2019-01-05T10:47:56.761Z,101997.42
2019-01-05T10:49:33.736Z,101995.20
2019-01-05T10:50:51.932Z,101990.97
2019-01-05T10:52:38.853Z,101991.45
2019-01-05T10:54:15.365Z,101987.92
2019-01-05T10:55:39.818Z,101988.76
2019-01-05T10:57:13.764Z,101986.78
2019-01-05T10:58:45.560Z,101989.00
2019-01-05T11:00:21.605Z,101983.97
2019-01-05T11:01:57.443Z,101987.50
2019-01-05T11:03:26.526Z,101990.06
2019-01-05T11:05:08.099Z,101993.23
2019-01-05T11:06:17.448Z,101993.39
2019-01-05T11:07:40.808Z,101993.03
2019-01-05T11:09:07.072Z,101991.33
2019-01-05T11:10:50.545Z,101988.64
2019-01-05T11:12:23.406Z,101988.64
2019-01-05T11:14:03.332Z,101985.23
2019-01-05T11:15:38.923Z,101986.94
2019-01-05T11:17:21.097Z,101984.37
2019-01-05T11:18:39.645Z,101987.92
2019-01-05T11:20:04.720Z,101979.15
2019-01-05T11:21:29.151Z,101973.26
2019-01-05T11:23:07.805Z,101967.05
2019-01-05T11:24:48.342Z,101967.41
2019-01-05T11:26:23.235Z,101975.83
2019-01-05T11:27:46.606Z,101974.20
2019-01-05T11:29:23.441Z,101973.22
2019-01-05T11:31:02.464Z,101966.50
2019-01-05T11:32:27.198Z,101972.70
2019-01-05T11:33:39.860Z,101972.23
2019-01-05T11:35:04.688Z,101968.55
2019-01-05T11:36:34.183Z,101976.27
2019-01-05T11:37:55.898Z,101975.27
2019-01-05T11:39:20.429Z,101980.66
2019-01-05T11:40:54.716Z,101978.44
2019-01-05T11:42:10.644Z,101980.02
2019-01-05T11:44:06.426Z,101978.16
2019-01-05T11:45:37.475Z,101975.36
2019-01-05T11:47:07.112Z,101977.05
2019-01-05T11:48:42.671Z,101975.71
2019-01-05T11:50:04.574Z,101975.71
2019-01-05T11:51:36.904Z,101984.26
2019-01-05T11:53:19.075Z,101983.78
2019-01-05T11:55:00.778Z,101978.40
2019-01-05T11:56:34.634Z,101980.58
2019-01-05T11:58:08.103Z,101977.05
2019-01-05T11:59:48.525Z,101977.05
2019-01-05T12:01:22.885Z,101987.66
2019-01-05T12:02:58.719Z,101981.80
2019-01-05T12:04:45.612Z,101980.94
2019-01-05T12:06:38.499Z,101983.63
2019-01-05T12:08:29.608Z,101985.95
2019-01-05T12:10:21.992Z,101977.53
2019-01-05T12:11:56.689Z,101978.67
2019-01-05T12:13:35.385Z,101983.34
2019-01-05T12:14:48.004Z,101981.64
2019-01-05T12:16:15.461Z,101988.36
2019-01-05T12:17:55.671Z,101981.77
2019-01-05T12:19:28.250Z,101973.34
2019-01-05T12:21:17.472Z,101980.57
2019-01-05T12:22:57.524Z,101980.57
2019-01-05T12:24:34.772Z,101986.43
2019-01-05T12:25:50.170Z,101983.89
2019-01-05T12:27:36.918Z,101986.58
2019-01-05T12:29:01.698Z,101990.26
2019-01-05T12:30:27.976Z,101995.99
2019-01-05T12:31:46.194Z,101994.65
2019-01-05T12:33:33.329Z,102003.55
2019-01-05T12:35:02.563Z,102002.20
2019-01-05T12:36:49.372Z,102004.41
2019-01-05T12:38:05.343Z,102006.59
2019-01-05T12:39:50.946Z,102010.63
2019-01-05T12:41:26.059Z,102013.31
2019-01-05T12:43:04.350Z,102015.88
2019-01-05T12:44:14.002Z,102014.39
2019-01-05T12:45:47.138Z,102012.77
2019-01-05T12:47:05.933Z,102014.47
2019-01-05T12:48:47.234Z,102004.94
2019-01-05T12:50:25.976Z,102007.98
2019-01-05T12:51:47.408Z,102011.86
2019-01-05T12:52:59.921Z,102015.42
2019-01-05T12:54:24.337Z,102015.89
2019-01-05T12:56:05.033Z,102011.86
2019-01-05T12:57:37.787Z,102015.42
2019-01-05T12:59:18.289Z,102014.55
2019-01-05T13:01:07.635Z,102010.88
2019-01-05T13:02:36.942Z,102011.03
2019-01-05T13:04:01.893Z,102015.54
2019-01-05T13:05:35.497Z,102018.74
2019-01-05T13:07:21.484Z,102020.08
2019-01-05T13:09:08.904Z,102017.39
2019-01-05T13:10:39.801Z,102010.31
2019-01-05T13:12:06.371Z,102005.56
2019-01-05T13:13:48.773Z,102008.73
2019-01-05T13:15:23.969Z,102008.02
2019-01-05T13:16:54.250Z,102004.14
2019-01-05T13:18:05.000Z,102005.12
2019-01-05T13:19:54.416Z,102009.64
2019-01-05T13:21:39.677Z,102015.02
2019-01-05T13:23:26.505Z,102031.66
2019-01-05T13:25:00.245Z,102024.22
2019-01-05T13:26:46.930Z,102031.93
2019-01-05T13:28:02.384Z,102026.67
2019-01-05T13:29:29.832Z,102035.25
2019-01-05T13:31:13.558Z,102032.56
2019-01-05T13:32:32.828Z,102028.17
2019-01-05T13:34:19.214Z,102023.63
2019-01-05T13:35:52.685Z,102019.59
2019-01-05T13:37:08.385Z,102019.59
2019-01-05T13:38:21.531Z,102020.82
2019-01-05T13:39:53.616Z,102029.36
2019-01-05T13:41:33.760Z,102022.52
2019-01-05T13:43:14.024Z,102010.78
2019-01-05T13:45:07.016Z,102007.10
2019-01-05T13:46:22.308Z,101998.88
2019-01-05T13:47:49.558Z,102002.44
2019-01-05T13:49:28.149Z,102003.78
2019-01-05T13:51:16.265Z,102010.00
2019-01-05T13:52:55.017Z,102017.94
2019-01-05T13:54:16.189Z,102026.37
2019-01-05T13:55:25.677Z,102025.02
2019-01-05T13:56:35.663Z,102030.52
2019-01-05T13:57:53.976Z,102002.19
2019-01-05T13:59:14.278Z,102034.08
2019-01-05T14:00:17.346Z,102037.13
2019-01-05T14:01:23.165Z,102041.52
2019-01-05T14:02:43.219Z,102033.80
2019-01-05T14:03:46.229Z,102039.18
2019-01-05T14:05:04.300Z,102042.59
2019-01-05T14:06:23.773Z,102045.27
2019-01-05T14:07:26.801Z,102036.58
2019-01-05T14:08:32.364Z,102036.94
2019-01-05T14:09:50.656Z,102034.25
2019-01-05T14:10:59.728Z,102033.73
2019-01-05T14:12:08.534Z,102035.08
2019-01-05T14:13:20.173Z,102037.77
2019-01-05T14:14:40.288Z,102040.09
2019-01-05T14:15:46.054Z,102042.79
2019-01-05T14:16:51.857Z,102042.31
2019-01-05T14:18:11.309Z,102033.53
2019-01-05T14:19:30.697Z,102032.19
2019-01-05T14:20:33.721Z,102037.41
2019-01-05T14:21:36.741Z,102034.88
2019-01-05T14:22:56.393Z,102041.23
2019-01-05T14:24:15.878Z,102026.37
2019-01-05T14:25:35.223Z,102032.30
2019-01-05T14:26:54.816Z,102025.58
2019-01-05T14:28:10.204Z,102030.13
2019-01-05T14:29:15.734Z,102028.78
2019-01-05T14:30:21.512Z,102026.57
2019-01-05T14:31:30.073Z,102023.05
2019-01-05T14:32:33.108Z,102024.39
2019-01-05T14:33:52.839Z,102023.05
2019-01-05T14:35:12.413Z,102024.75
2019-01-05T14:36:33.385Z,102030.48
2019-01-05T14:37:53.258Z,102022.06
2019-01-05T14:38:56.298Z,102021.07
2019-01-05T14:40:08.491Z,102020.20
2019-01-05T14:41:11.512Z,102021.07
2019-01-05T14:42:31.157Z,102028.62
2019-01-05T14:43:39.938Z,102030.69
2019-01-05T14:45:01.140Z,102028.98
2019-01-05T14:46:06.921Z,102034.25
2019-01-05T14:47:09.944Z,102030.56
2019-01-05T14:48:29.536Z,101996.12
2019-01-05T14:49:35.524Z,102030.56
2019-01-05T14:50:38.541Z,102030.92
2019-01-05T14:51:44.426Z,102036.15
2019-01-05T14:53:02.594Z,102031.64
2019-01-05T14:54:17.357Z,102030.29
2019-01-05T14:55:36.760Z,102028.95
2019-01-05T14:56:45.337Z,102029.66
2019-01-05T14:57:54.406Z,102031.99
2019-01-05T14:59:06.476Z,102029.66
2019-01-05T15:00:27.927Z,102028.31
2019-01-05T15:01:45.825Z,102032.70
2019-01-05T15:02:57.653Z,102032.70
2019-01-05T15:04:03.176Z,102032.70
2019-01-05T15:05:22.989Z,102034.05
2019-01-05T15:06:28.522Z,102027.33
2019-01-05T15:07:31.545Z,102027.84
2019-01-05T15:08:43.498Z,102034.20
2019-01-05T15:10:02.930Z,102037.37
2019-01-05T15:11:05.940Z,102039.08
2019-01-05T15:12:11.476Z,102033.34
2019-01-05T15:13:23.548Z,102031.64
2019-01-05T15:14:29.345Z,102030.65
2019-01-05T15:15:35.029Z,102031.99
2019-01-05T15:16:46.753Z,102031.64
2019-01-05T15:17:55.305Z,102026.73
2019-01-05T15:19:13.168Z,102029.94
2019-01-05T15:20:32.917Z,102028.59
2019-01-05T15:21:41.692Z,102031.76
2019-01-05T15:22:44.715Z,102019.81
2019-01-05T15:23:53.332Z,102030.21
2019-01-05T15:25:12.754Z,102033.02
2019-01-05T15:26:15.781Z,102030.69
2019-01-05T15:27:18.807Z,102031.31
2019-01-05T15:28:24.765Z,102032.19
2019-01-05T15:29:27.777Z,102032.66
2019-01-05T15:30:33.634Z,102039.39
2019-01-05T15:31:42.540Z,102039.54
2019-01-05T15:32:48.378Z,102033.17
2019-01-05T15:33:51.393Z,102029.97
2019-01-05T15:35:09.325Z,102032.19
2019-01-05T15:36:29.183Z,102026.81
2019-01-05T15:37:32.200Z,102035.70
2019-01-05T15:38:37.753Z,102028.15
2019-01-05T15:39:43.274Z,102033.53
2019-01-05T15:41:01.107Z,102037.41
2019-01-05T15:42:09.902Z,102029.97
2019-01-05T15:43:12.921Z,102032.03
2019-01-05T15:44:16.396Z,102028.15
2019-01-05T15:45:35.801Z,102030.84
2019-01-05T15:46:50.553Z,102028.98
2019-01-05T15:47:56.279Z,102024.83
2019-01-05T15:49:02.272Z,102030.69
2019-01-05T15:50:21.882Z,102024.83
2019-01-05T15:51:41.259Z,102031.55
2019-01-05T15:52:56.064Z,102024.83
2019-01-05T15:54:07.677Z,102026.66
2019-01-05T15:55:10.701Z,102027.52
2019-01-05T15:56:30.512Z,102027.88
2019-01-05T15:57:36.422Z,102025.82
2019-01-05T15:58:39.436Z,102028.15
2019-01-05T15:59:44.977Z,102025.31
2019-01-05T16:00:53.550Z,102028.86
2019-01-05T16:01:56.574Z,102035.08
2019-01-05T16:03:16.320Z,102033.25
2019-01-05T16:04:31.152Z,102037.65
2019-01-05T16:05:49.104Z,102037.65
2019-01-05T16:07:04.000Z,102036.66
2019-01-05T16:08:12.627Z,102045.56
2019-01-05T16:09:15.637Z,102036.15
2019-01-05T16:10:27.506Z,102045.09
2019-01-05T16:11:48.475Z,102042.88
2019-01-05T16:13:09.545Z,102049.12
2019-01-05T16:14:29.159Z,102046.78
2019-01-05T16:15:37.886Z,102050.81